createdAt,value
2023-04-13T00:01:45.792Z,97424.22
2023-04-13T00:04:34.156Z,97426.53
2023-04-13T00:07:19.376Z,97423.00
2023-04-13T00:10:09.784Z,97423.78
2023-04-13T00:12:58.323Z,97423.00
2023-04-13T00:15:44.236Z,97420.22
2023-04-13T00:18:29.727Z,97424.53
2023-04-13T00:21:16.983Z,97428.56
2023-04-13T00:24:02.839Z,97429.78
2023-04-13T00:26:48.322Z,97438.88
2023-04-13T00:29:33.522Z,97433.81
2023-04-13T00:32:18.888Z,97432.56
2023-04-13T00:35:04.799Z,97434.13
2023-04-13T00:37:49.928Z,97430.53
2023-04-13T00:40:37.884Z,97430.53
2023-04-13T00:43:23.769Z,97438.13
2023-04-13T00:46:09.369Z,97437.34
2023-04-13T00:48:55.705Z,97439.66
2023-04-13T00:51:42.742Z,97443.66
2023-04-13T00:54:29.344Z,97445.22
2023-04-13T00:57:17.092Z,97440.91
2023-04-13T01:00:09.229Z,97440.13
2023-04-13T01:02:54.627Z,97440.91
2023-04-13T01:06:05.651Z,97438.13
2023-04-13T01:09:15.165Z,97438.88
2023-04-13T01:12:17.916Z,97436.09
2023-04-13T01:15:09.681Z,97429.78
2023-04-13T01:18:07.446Z,97419.94
2023-04-13T01:20:55.148Z,97434.56
2023-04-13T01:23:56.650Z,97433.03
2023-04-13T01:26:58.532Z,97435.03
2023-04-13T01:29:46.957Z,97436.09
2023-04-13T01:32:33.392Z,97432.56
2023-04-13T01:35:20.488Z,97431.03
2023-04-13T01:38:07.106Z,97423.47
2023-04-13T01:40:52.858Z,97423.47
2023-04-13T01:43:39.114Z,97424.22
2023-04-13T01:46:28.714Z,97431.78
2023-04-13T01:49:23.169Z,97443.66
2023-04-13T01:52:42.935Z,97435.34
2023-04-13T01:55:33.175Z,97440.91
2023-04-13T01:58:20.714Z,97452.00
2023-04-13T02:01:15.780Z,97458.81
2023-04-13T02:04:02.751Z,97460.34
2023-04-13T02:06:51.576Z,97462.34
2023-04-13T02:09:42.836Z,97470.69
2023-04-13T02:12:28.809Z,97469.91
2023-04-13T02:15:14.247Z,97482.56
2023-04-13T02:17:59.564Z,97487.34
2023-04-13T02:20:44.905Z,97492.91
2023-04-13T02:23:31.413Z,97490.13
2023-04-13T02:26:17.799Z,97484.56
2023-04-13T02:29:03.568Z,97482.56
2023-04-13T02:31:49.015Z,97484.56
2023-04-13T02:34:34.567Z,97482.56
2023-04-13T02:37:21.024Z,97471.44
2023-04-13T02:40:09.916Z,97481.78
2023-04-13T02:42:57.398Z,97475.47
2023-04-13T02:45:43.750Z,97481.78
2023-04-13T02:48:32.593Z,97481.78
2023-04-13T02:51:18.447Z,97486.09
2023-04-13T02:54:04.991Z,97487.66
2023-04-13T02:56:56.119Z,97490.44
2023-04-13T02:59:42.022Z,97488.88
2023-04-13T03:02:30.176Z,97495.22
2023-04-13T03:05:16.560Z,97489.66
2023-04-13T03:08:02.623Z,97490.88
2023-04-13T03:10:48.285Z,97492.91
2023-04-13T03:13:33.607Z,97492.91
2023-04-13T03:16:18.963Z,97483.00
2023-04-13T03:19:05.571Z,97488.13
2023-04-13T03:21:52.525Z,97500.47
2023-04-13T03:24:42.055Z,97503.25
2023-04-13T03:27:29.448Z,97498.59
2023-04-13T03:30:14.674Z,97509.25
2023-04-13T03:33:09.708Z,97509.25
2023-04-13T03:35:57.836Z,97511.28
2023-04-13T03:38:49.652Z,97518.34
2023-04-13T03:41:36.248Z,97527.94
2023-04-13T03:44:21.816Z,97509.72
2023-04-13T03:47:09.596Z,97526.38
2023-04-13T03:49:55.704Z,97529.16
2023-04-13T03:52:41.302Z,97517.28
2023-04-13T03:55:27.240Z,97535.97
2023-04-13T03:58:15.903Z,97533.19
2023-04-13T04:01:01.216Z,97535.97
2023-04-13T04:04:02.867Z,97534.72
2023-04-13T04:06:49.601Z,97516.81
2023-04-13T04:09:36.833Z,97509.56
2023-04-13T04:12:22.802Z,97517.75
2023-04-13T04:15:09.452Z,97508.16
2023-04-13T04:17:59.357Z,97506.00
2023-04-13T04:20:45.194Z,97508.16
2023-04-13T04:23:31.083Z,97510.00
2023-04-13T04:26:25.669Z,97517.44
2023-04-13T04:29:22.218Z,97526.38
2023-04-13T04:32:12.829Z,97532.06
2023-04-13T04:34:58.261Z,97538.25
2023-04-13T04:37:50.014Z,97532.53
2023-04-13T04:40:38.056Z,97545.03
2023-04-13T04:43:30.576Z,97550.25
2023-04-13T04:46:17.089Z,97545.31
2023-04-13T04:49:08.623Z,97553.00
2023-04-13T04:51:55.247Z,97551.59
2023-04-13T04:54:44.945Z,97558.97
2023-04-13T04:57:30.938Z,97573.97
2023-04-13T05:00:17.304Z,97577.22
2023-04-13T05:03:12.079Z,97580.91
2023-04-13T05:06:02.517Z,97586.47
2023-04-13T05:08:50.898Z,97589.91
2023-04-13T05:11:36.780Z,97603.81
2023-04-13T05:14:24.395Z,97616.63
2023-04-13T05:17:13.120Z,97610.75
2023-04-13T05:19:59.470Z,97616.50
2023-04-13T05:22:54.249Z,97622.66
2023-04-13T05:25:39.808Z,97616.03
2023-04-13T05:28:34.317Z,97634.72
2023-04-13T05:31:20.292Z,97638.44
2023-04-13T05:34:06.089Z,97653.56
2023-04-13T05:36:53.689Z,97643.69
2023-04-13T05:39:40.076Z,97644.47
2023-04-13T05:42:26.799Z,97654.00
2023-04-13T05:45:12.117Z,97664.38
2023-04-13T05:48:13.696Z,97669.94
2023-04-13T05:51:01.371Z,97662.03
2023-04-13T05:53:50.703Z,97666.53
2023-04-13T05:56:37.154Z,97675.03
2023-04-13T05:59:23.977Z,97679.03
2023-04-13T06:02:09.862Z,97677.97
2023-04-13T06:04:56.450Z,97679.19
2023-04-13T06:07:44.901Z,97679.19
2023-04-13T06:10:30.731Z,97678.88
2023-04-13T06:13:16.193Z,97677.34
2023-04-13T06:16:01.490Z,97675.34
2023-04-13T06:18:46.726Z,97657.88
2023-04-13T06:21:32.036Z,97668.22
2023-04-13T06:24:18.069Z,97673.03
2023-04-13T06:27:04.703Z,97672.25
2023-04-13T06:29:51.260Z,97677.03
2023-04-13T06:32:37.112Z,97685.34
2023-04-13T06:35:23.331Z,97666.69
2023-04-13T06:38:10.142Z,97667.47
2023-04-13T06:41:07.026Z,97672.25
2023-04-13T06:43:56.278Z,97672.25
2023-04-13T06:46:50.498Z,97677.81
2023-04-13T06:49:38.942Z,97686.59
2023-04-13T06:52:24.844Z,97683.38
2023-04-13T06:55:12.546Z,97682.56
2023-04-13T06:57:59.334Z,97684.59
2023-04-13T07:00:44.881Z,97676.25
2023-04-13T07:03:30.562Z,97670.69
2023-04-13T07:06:16.798Z,97677.03
2023-04-13T07:09:02.225Z,97674.72
2023-04-13T07:11:49.325Z,97685.34
2023-04-13T07:14:39.125Z,97700.50
2023-04-13T07:17:27.453Z,97700.50
2023-04-13T07:20:13.550Z,97699.72
2023-04-13T07:22:59.021Z,97710.03
2023-04-13T07:25:44.714Z,97700.94
2023-04-13T07:28:37.291Z,97707.72
2023-04-13T07:31:22.837Z,97709.72
2023-04-13T07:34:10.423Z,97706.97
2023-04-13T07:37:01.164Z,97709.72
2023-04-13T07:39:47.940Z,97718.06
2023-04-13T07:42:35.927Z,97722.38
2023-04-13T07:45:21.791Z,97737.50
2023-04-13T07:48:07.281Z,97735.97
2023-04-13T07:50:55.307Z,97739.50
2023-04-13T07:53:42.047Z,97738.72
2023-04-13T07:56:27.947Z,97735.97
2023-04-13T07:59:14.059Z,97747.84
2023-04-13T08:02:00.868Z,97745.53
2023-04-13T08:04:49.360Z,97752.31
2023-04-13T08:07:39.869Z,97743.22
2023-04-13T08:10:26.056Z,97743.66
2023-04-13T08:13:14.326Z,97755.53
2023-04-13T08:16:01.432Z,97758.31
2023-04-13T08:18:47.657Z,97750.47
2023-04-13T08:21:32.957Z,97752.00
2023-04-13T08:24:20.662Z,97765.88
2023-04-13T08:27:07.613Z,97774.22
2023-04-13T08:29:57.031Z,97790.13
2023-04-13T08:32:42.371Z,97783.03
2023-04-13T08:35:28.789Z,97778.25
2023-04-13T08:38:16.514Z,97775.47
2023-04-13T08:41:09.316Z,97785.34
2023-04-13T08:43:56.548Z,97782.25
2023-04-13T08:46:46.668Z,97782.25
2023-04-13T08:49:36.909Z,97764.03
2023-04-13T08:52:26.584Z,97771.13
2023-04-13T08:55:12.941Z,97778.25
2023-04-13T08:58:03.646Z,97776.69
2023-04-13T09:00:50.992Z,97780.25
2023-04-13T09:03:48.783Z,97773.13
2023-04-13T09:06:41.368Z,97779.16
2023-04-13T09:09:29.858Z,97784.25
2023-04-13T09:12:15.550Z,97787.78
2023-04-13T09:15:03.109Z,97787.78
2023-04-13T09:18:20.513Z,97791.81
2023-04-13T09:21:13.149Z,97789.03
2023-04-13T09:23:59.704Z,97784.69
2023-04-13T09:26:46.782Z,97790.25
2023-04-13T09:29:32.325Z,97795.81
2023-04-13T09:32:22.699Z,97795.38
2023-04-13T09:35:09.775Z,97801.38
2023-04-13T09:37:56.134Z,97793.03
2023-04-13T09:40:49.243Z,97800.59
2023-04-13T09:43:36.687Z,97800.59
2023-04-13T09:46:22.769Z,97805.38
2023-04-13T09:49:09.141Z,97813.28
2023-04-13T09:51:55.884Z,97818.03
2023-04-13T09:54:41.554Z,97810.94
2023-04-13T09:57:28.148Z,97813.72
2023-04-13T10:00:19.372Z,97814.50
2023-04-13T10:03:06.599Z,97814.97
2023-04-13T10:05:59.372Z,97810.94
2023-04-13T10:08:46.523Z,97803.84
2023-04-13T10:11:37.687Z,97805.38
2023-04-13T10:14:31.697Z,97806.63
2023-04-13T10:17:48.204Z,97812.97
2023-04-13T10:20:34.695Z,97818.50
2023-04-13T10:23:21.602Z,97816.94
2023-04-13T10:26:07.422Z,97830.38
2023-04-13T10:28:53.116Z,97829.16
2023-04-13T10:31:39.252Z,97835.50
2023-04-13T10:34:27.208Z,97825.91
2023-04-13T10:37:21.102Z,97821.13
2023-04-13T10:40:10.175Z,97814.34
2023-04-13T10:42:55.450Z,97811.59
2023-04-13T10:45:40.778Z,97823.00
2023-04-13T10:48:26.259Z,97819.00
2023-04-13T10:51:11.907Z,97805.88
2023-04-13T10:54:04.466Z,97822.53
2023-04-13T10:56:57.877Z,97816.22
2023-04-13T10:59:59.138Z,97812.66
2023-04-13T11:02:45.732Z,97807.88
2023-04-13T11:05:31.063Z,97807.88
2023-04-13T11:08:18.966Z,97809.13
2023-04-13T11:11:05.576Z,97813.88
2023-04-13T11:13:51.243Z,97805.88
2023-04-13T11:16:46.091Z,97812.22
2023-04-13T11:19:31.550Z,97811.41
2023-04-13T11:22:18.365Z,97813.75
2023-04-13T11:25:08.847Z,97824.84
2023-04-13T11:27:59.179Z,97816.53
2023-04-13T11:30:56.102Z,97830.41
2023-04-13T11:33:43.621Z,97824.84
2023-04-13T11:36:30.436Z,97832.75
2023-04-13T11:39:15.711Z,97821.63
2023-04-13T11:42:06.013Z,97821.19
2023-04-13T11:44:53.615Z,97825.53
2023-04-13T11:47:39.044Z,97814.41
2023-04-13T11:50:25.833Z,97807.28
2023-04-13T11:53:11.611Z,97808.84
2023-04-13T11:55:58.099Z,97809.63
2023-04-13T11:58:43.610Z,97812.41
2023-04-13T12:01:34.146Z,97814.41
2023-04-13T12:04:21.509Z,97813.16
2023-04-13T12:07:13.061Z,97821.50
2023-04-13T12:10:05.534Z,97818.72
2023-04-13T12:13:17.021Z,97807.16
2023-04-13T12:16:09.584Z,97805.47
2023-04-13T12:19:09.618Z,97812.41
2023-04-13T12:21:57.596Z,97799.16
2023-04-13T12:24:45.461Z,97806.56
2023-04-13T12:27:40.316Z,97815.22
2023-04-13T12:30:26.449Z,97807.97
2023-04-13T12:33:12.250Z,97803.03
2023-04-13T12:35:57.687Z,97802.75
2023-04-13T12:38:43.448Z,97796.25
2023-04-13T12:41:28.862Z,97800.88
2023-04-13T12:44:14.934Z,97799.97
2023-04-13T12:47:00.503Z,97797.03
2023-04-13T12:49:46.090Z,97806.00
2023-04-13T12:52:32.378Z,97810.63
2023-04-13T12:55:18.805Z,97825.63
2023-04-13T12:58:04.877Z,97825.16
2023-04-13T13:00:50.866Z,97831.50
2023-04-13T13:03:37.154Z,97835.69
2023-04-13T13:06:23.085Z,97833.66
2023-04-13T13:09:09.486Z,97828.41
2023-04-13T13:11:56.161Z,97820.38
2023-04-13T13:14:41.873Z,97810.00
2023-04-13T13:17:28.527Z,97812.34
2023-04-13T13:20:14.152Z,97823.91
2023-04-13T13:22:59.584Z,97824.22
2023-04-13T13:25:52.730Z,97827.00
2023-04-13T13:28:42.725Z,97823.91
2023-04-13T13:31:28.035Z,97820.81
2023-04-13T13:34:13.531Z,97822.66
2023-04-13T13:36:59.001Z,97817.91
2023-04-13T13:39:44.915Z,97815.13
2023-04-13T13:42:40.422Z,97809.56
2023-04-13T13:45:33.626Z,97815.41
2023-04-13T13:48:22.123Z,97820.69
2023-04-13T13:51:16.347Z,97825.94
2023-04-13T13:54:02.008Z,97822.84
2023-04-13T13:56:47.210Z,97822.84
2023-04-13T13:59:32.597Z,97823.44
2023-04-13T14:02:18.089Z,97823.44
2023-04-13T14:05:03.503Z,97824.38
2023-04-13T14:07:49.484Z,97822.84
2023-04-13T14:10:38.135Z,97829.31
2023-04-13T14:13:23.412Z,97816.78
2023-04-13T14:16:09.005Z,97811.25
2023-04-13T14:18:54.681Z,97806.13
2023-04-13T14:21:40.808Z,97811.69
2023-04-13T14:24:26.626Z,97818.19
2023-04-13T14:27:12.287Z,97813.88
2023-04-13T14:29:58.064Z,97809.84
2023-04-13T14:32:44.105Z,97807.25
2023-04-13T14:35:29.964Z,97806.75
2023-04-13T14:38:15.749Z,97807.38
2023-04-13T14:41:01.266Z,97807.69
2023-04-13T14:43:46.611Z,97811.09
2023-04-13T14:46:31.954Z,97817.59
2023-04-13T14:49:17.848Z,97811.09
2023-04-13T14:52:07.340Z,97814.50
2023-04-13T14:54:57.286Z,97823.16
2023-04-13T14:57:42.830Z,97826.59
2023-04-13T15:00:40.234Z,97836.00
2023-04-13T15:03:26.618Z,97842.03
2023-04-13T15:06:12.187Z,97845.25
2023-04-13T15:08:58.626Z,97846.94
2023-04-13T15:11:44.089Z,97854.34
2023-04-13T15:14:29.671Z,97856.53
2023-04-13T15:17:14.856Z,97850.66
2023-04-13T15:20:00.991Z,97844.16
2023-04-13T15:22:46.415Z,97851.72
2023-04-13T15:25:31.888Z,97849.41
2023-04-13T15:28:18.661Z,97858.69
2023-04-13T15:31:04.164Z,97860.66
2023-04-13T15:33:49.499Z,97859.59
2023-04-13T15:36:38.589Z,97864.06
2023-04-13T15:39:24.222Z,97865.63
2023-04-13T15:42:09.901Z,97871.19
2023-04-13T15:44:55.314Z,97865.47
2023-04-13T15:47:41.440Z,97871.78
2023-04-13T15:50:26.798Z,97878.28
2023-04-13T15:53:11.973Z,97874.28
2023-04-13T15:55:57.252Z,97882.63
2023-04-13T15:58:42.651Z,97884.16
2023-04-13T16:01:27.839Z,97879.06
2023-04-13T16:04:13.300Z,97879.06
2023-04-13T16:07:12.078Z,97884.94
2023-04-13T16:10:01.465Z,97881.69
2023-04-13T16:12:50.011Z,97888.34
2023-04-13T16:15:36.916Z,97889.13
2023-04-13T16:18:31.959Z,97882.47
2023-04-13T16:21:19.537Z,97881.69
2023-04-13T16:24:06.836Z,97882.47
2023-04-13T16:26:52.432Z,97879.09
2023-04-13T16:29:42.732Z,97879.09
2023-04-13T16:32:29.343Z,97882.34
2023-04-13T16:35:14.872Z,97885.88
2023-04-13T16:38:00.851Z,97876.00
2023-04-13T16:40:46.508Z,97880.00
2023-04-13T16:43:32.172Z,97879.09
2023-04-13T16:46:19.288Z,97874.44
2023-04-13T16:49:04.832Z,97874.44
2023-04-13T16:51:50.499Z,97882.34
2023-04-13T16:54:36.854Z,97884.34
2023-04-13T16:57:22.384Z,97885.56
2023-04-13T17:00:10.535Z,97884.03
2023-04-13T17:02:56.259Z,97881.56
2023-04-13T17:05:41.742Z,97892.69
2023-04-13T17:08:30.401Z,97885.56
2023-04-13T17:11:16.598Z,97886.34
2023-04-13T17:14:01.884Z,97890.38
2023-04-13T17:16:47.469Z,97885.56
2023-04-13T17:19:33.249Z,97875.22
2023-04-13T17:22:18.922Z,97874.44
2023-04-13T17:25:06.425Z,97870.44
2023-04-13T17:27:53.398Z,97868.88
2023-04-13T17:30:38.797Z,97864.09
2023-04-13T17:33:24.482Z,97866.88
2023-04-13T17:36:09.796Z,97861.31
2023-04-13T17:38:55.076Z,97866.53
2023-04-13T17:41:41.674Z,97866.72
2023-04-13T17:44:27.273Z,97874.75
2023-04-13T17:47:12.449Z,97865.00
2023-04-13T17:49:59.250Z,97872.59
2023-04-13T17:52:44.839Z,97875.50
2023-04-13T17:55:31.214Z,97887.56
2023-04-13T17:58:16.506Z,97901.91
2023-04-13T18:01:09.696Z,97923.06
2023-04-13T18:03:55.371Z,97939.00
2023-04-13T18:06:41.204Z,97965.22
2023-04-13T18:09:28.268Z,97994.59
2023-04-13T18:12:14.048Z,98017.59
2023-04-13T18:14:59.755Z,98027.97
2023-04-13T18:17:44.914Z,98037.06
2023-04-13T18:20:30.387Z,98035.81
2023-04-13T18:23:16.273Z,98037.84
2023-04-13T18:26:08.953Z,98045.72
2023-04-13T18:28:54.975Z,98047.75
2023-04-13T18:31:40.611Z,98059.16
2023-04-13T18:34:43.324Z,98061.16
2023-04-13T18:37:32.384Z,98069.06
2023-04-13T18:40:18.234Z,98065.50
2023-04-13T18:43:03.788Z,98068.94
2023-04-13T18:45:49.653Z,98065.69
2023-04-13T18:48:36.097Z,98063.66
2023-04-13T18:51:22.334Z,98056.44
2023-04-13T18:54:07.866Z,98054.88
2023-04-13T18:56:53.654Z,98051.78
2023-04-13T18:59:39.253Z,98047.47
2023-04-13T19:02:25.490Z,98035.25
2023-04-13T19:05:13.419Z,98046.81
2023-04-13T19:08:24.318Z,98041.72
2023-04-13T19:11:10.081Z,98039.41
2023-04-13T19:13:55.374Z,98043.06
2023-04-13T19:16:41.662Z,98044.31
2023-04-13T19:19:27.108Z,98042.44
2023-04-13T19:22:12.458Z,98039.34
2023-04-13T19:24:58.164Z,98040.56
2023-04-13T19:27:45.330Z,98031.47
2023-04-13T19:30:31.113Z,98032.84
2023-04-13T19:33:16.759Z,98041.19
2023-04-13T19:36:05.803Z,98048.44
2023-04-13T19:38:52.068Z,98046.88
2023-04-13T19:41:39.220Z,98043.75
2023-04-13T19:44:24.712Z,98046.22
2023-04-13T19:47:11.028Z,98039.88
2023-04-13T19:49:56.967Z,98038.34
2023-04-13T19:52:42.610Z,98031.22
2023-04-13T19:55:28.426Z,98029.69
2023-04-13T19:58:13.591Z,98029.69
2023-04-13T20:00:59.497Z,98024.59
2023-04-13T20:03:45.421Z,98027.81
2023-04-13T20:06:33.056Z,98029.81
2023-04-13T20:09:18.509Z,98027.47
2023-04-13T20:12:05.520Z,98022.25
2023-04-13T20:14:51.068Z,98028.59
2023-04-13T20:17:36.347Z,98025.19
2023-04-13T20:20:23.812Z,98036.31
2023-04-13T20:23:09.651Z,98034.41
2023-04-13T20:25:56.064Z,98040.88
2023-04-13T20:28:41.471Z,98036.56
2023-04-13T20:31:29.033Z,98041.81
2023-04-13T20:34:14.621Z,98041.81
2023-04-13T20:36:59.906Z,98037.47
2023-04-13T20:39:51.146Z,98027.59
2023-04-13T20:42:36.775Z,98014.09
2023-04-13T20:45:23.269Z,98015.34
2023-04-13T20:50:59.042Z,98013.78
2023-04-13T20:53:45.149Z,98001.13
2023-04-13T20:56:30.900Z,97996.78
2023-04-13T20:59:17.005Z,97991.69
2023-04-13T21:02:03.074Z,97990.16
2023-04-13T21:04:48.539Z,97996.16
2023-04-13T21:07:34.281Z,97996.94
2023-04-13T21:10:19.876Z,97996.94
2023-04-13T21:13:05.980Z,97989.38
2023-04-13T21:15:51.453Z,98002.03
2023-04-13T21:18:36.835Z,98002.78
2023-04-13T21:21:23.503Z,98001.25
2023-04-13T21:24:09.312Z,98009.16
2023-04-13T21:26:54.749Z,98015.16
2023-04-13T21:29:39.997Z,98007.59
2023-04-13T21:32:25.444Z,98015.91
2023-04-13T21:35:11.525Z,98017.47
2023-04-13T21:37:56.751Z,98021.03
2023-04-13T21:40:42.089Z,98031.38
2023-04-13T21:43:27.478Z,98031.38
2023-04-13T21:46:14.171Z,98042.50
2023-04-13T21:49:00.050Z,98032.16
2023-04-13T21:51:45.861Z,98026.59
2023-04-13T21:54:31.369Z,98030.13
2023-04-13T21:57:16.757Z,98023.03
2023-04-13T22:00:02.963Z,98009.91
2023-04-13T22:02:57.245Z,98005.13
2023-04-13T22:05:42.522Z,98002.34
2023-04-13T22:08:27.977Z,97992.81
2023-04-13T22:11:13.329Z,97989.69
2023-04-13T22:14:00.218Z,97985.34
2023-04-13T22:16:48.609Z,97982.91
2023-04-13T22:19:34.123Z,97978.59
2023-04-13T22:22:19.309Z,97975.00
2023-04-13T22:25:04.696Z,97966.22
2023-04-13T22:27:51.591Z,97964.69
2023-04-13T22:30:37.683Z,97964.69
2023-04-13T22:33:22.979Z,97956.38
2023-04-13T22:36:20.598Z,97956.81
2023-04-13T22:39:05.991Z,97953.59
2023-04-13T22:41:51.309Z,97964.69
2023-04-13T22:44:36.545Z,97969.94
2023-04-13T22:47:21.788Z,97974.25
2023-04-13T22:50:07.537Z,97980.56
2023-04-13T22:52:55.721Z,97979.03
2023-04-13T22:55:41.390Z,97990.59
2023-04-13T22:58:26.916Z,97996.16
2023-04-13T23:01:12.412Z,97997.38
2023-04-13T23:03:57.982Z,98005.72
2023-04-13T23:06:43.537Z,98006.94
2023-04-13T23:09:29.149Z,98012.50
2023-04-13T23:12:14.762Z,98024.41
2023-04-13T23:15:00.036Z,98028.41
2023-04-13T23:17:45.422Z,98016.50
2023-04-13T23:20:31.107Z,98019.28
2023-04-13T23:23:16.422Z,98021.31
2023-04-13T23:26:01.671Z,98018.53
2023-04-13T23:28:47.462Z,98016.50
2023-04-13T23:31:32.732Z,98015.75
2023-04-13T23:34:17.966Z,98022.84
2023-04-13T23:37:03.576Z,98027.63
2023-04-13T23:39:48.998Z,98018.53
2023-04-13T23:42:34.227Z,98020.53
2023-04-13T23:45:19.514Z,98024.06
2023-04-13T23:48:04.692Z,98016.97
2023-04-13T23:50:50.100Z,98018.53
2023-04-13T23:53:35.679Z,98012.97
2023-04-13T23:56:21.271Z,97992.75
2023-04-13T23:59:06.558Z,97998.31
